Terminal Aerodrome Forecast
Issued by NWS Wilmington, OH

Current Version | Previous Version | Graphics & Text | Print | Product List | Glossary On
Versions: 1 2 3 4 5 6 7 8 9 10 11 12 13 14 15 16 17 18 19 20 21 22 23
000
FTUS41 KILN 190200 AAA
TAFILN
TAF AMD
KILN 190244Z 1903/1924 07004KT P6SM SKC
      TEMPO 1909/1912 00000KT 5SM BR
     FM191400 07008KT P6SM FEW050=

USA.gov is the U.S. government's official web portal to all federal, state and local government web resources and services.